createdAt,value
2018-10-07T00:01:12.102Z,97289.00
2018-10-07T00:05:14.415Z,97305.00
2018-10-07T00:09:16.716Z,97303.00
2018-10-07T00:13:19.063Z,97303.00
2018-10-07T00:17:21.398Z,97317.00
2018-10-07T00:21:23.742Z,97311.00
2018-10-07T00:25:26.018Z,97314.00
2018-10-07T00:29:29.258Z,97312.00
2018-10-07T00:33:31.578Z,97312.00
2018-10-07T00:37:34.039Z,97319.00
2018-10-07T00:41:36.322Z,97327.00
2018-10-07T00:45:38.694Z,97323.00
2018-10-07T00:49:41.002Z,97328.00
2018-10-07T00:53:43.439Z,97334.00
2018-10-07T00:57:45.835Z,97332.00
2018-10-07T01:01:48.145Z,97335.00
2018-10-07T01:05:50.504Z,97336.00
2018-10-07T01:09:52.789Z,97335.00
2018-10-07T01:13:55.104Z,97333.00
2018-10-07T01:17:57.427Z,97326.00
2018-10-07T01:21:59.758Z,97337.00
2018-10-07T01:26:02.107Z,97333.00
2018-10-07T01:30:04.911Z,97335.00
2018-10-07T01:34:07.263Z,97325.00
2018-10-07T01:38:09.551Z,97329.00
2018-10-07T01:42:11.828Z,97329.00
2018-10-07T01:46:14.249Z,97329.00
2018-10-07T01:50:16.522Z,97333.00
2018-10-07T01:54:18.824Z,97337.00
2018-10-07T01:58:21.112Z,97333.00
2018-10-07T02:02:23.431Z,97331.00
2018-10-07T02:06:25.933Z,97330.00
2018-10-07T02:10:28.342Z,97325.00
2018-10-07T02:14:30.669Z,97340.00
2018-10-07T02:18:33.006Z,97334.00
2018-10-07T02:22:35.268Z,97339.00
2018-10-07T02:26:37.610Z,97351.00
2018-10-07T02:30:39.873Z,97357.00
2018-10-07T02:34:42.204Z,97353.00
2018-10-07T02:38:44.507Z,97357.00
2018-10-07T02:42:46.777Z,97357.00
2018-10-07T02:46:49.062Z,97358.00
2018-10-07T02:50:51.321Z,97362.00
2018-10-07T02:54:53.746Z,97358.00
2018-10-07T02:58:56.146Z,97366.00
2018-10-07T03:02:58.436Z,97364.00
2018-10-07T03:07:00.764Z,97356.00
2018-10-07T03:11:03.052Z,97372.00
2018-10-07T03:15:05.441Z,97383.00
2018-10-07T03:19:09.832Z,97376.00
2018-10-07T03:23:12.177Z,97381.00
2018-10-07T03:27:14.535Z,97388.00
2018-10-07T03:31:16.803Z,97389.00
2018-10-07T03:35:19.249Z,97410.00
2018-10-07T03:39:21.534Z,97402.00
2018-10-07T03:43:23.876Z,97409.00
2018-10-07T03:47:26.202Z,97407.00
2018-10-07T03:51:28.490Z,97418.00
2018-10-07T03:55:30.778Z,97426.00
2018-10-07T03:59:33.488Z,97429.00
2018-10-07T04:03:35.956Z,97441.00
2018-10-07T04:07:38.325Z,97432.00
2018-10-07T04:11:41.886Z,97434.00
2018-10-07T04:15:44.350Z,97444.00
2018-10-07T04:19:46.696Z,97437.00
2018-10-07T04:23:49.002Z,97440.00
2018-10-07T04:27:51.302Z,97445.00
2018-10-07T04:31:53.632Z,97448.00
2018-10-07T04:35:55.927Z,97455.00
2018-10-07T04:39:58.231Z,97452.00
2018-10-07T04:44:00.572Z,97454.00
2018-10-07T04:48:02.947Z,97466.00
2018-10-07T04:52:05.281Z,97469.00
2018-10-07T04:56:07.606Z,97468.00
2018-10-07T05:00:09.954Z,97473.00
2018-10-07T05:04:12.298Z,97481.00
2018-10-07T05:08:14.791Z,97481.00
2018-10-07T05:12:17.893Z,97488.00
2018-10-07T05:16:24.270Z,97501.00
2018-10-07T05:20:26.601Z,97518.00
2018-10-07T05:24:28.879Z,97513.00
2018-10-07T05:28:31.237Z,97516.00
2018-10-07T05:32:33.588Z,97528.00
2018-10-07T05:36:35.866Z,97543.00
2018-10-07T05:40:38.115Z,97550.00
2018-10-07T05:44:40.483Z,97567.00
2018-10-07T05:48:42.677Z,97577.00
2018-10-07T05:52:44.972Z,97588.00
2018-10-07T05:56:47.270Z,97597.00
2018-10-07T06:00:50.066Z,97602.00
2018-10-07T06:04:53.980Z,97614.00
2018-10-07T06:08:56.385Z,97608.00
2018-10-07T06:12:58.727Z,97629.00
2018-10-07T06:17:01.462Z,97637.00
2018-10-07T06:21:03.791Z,97634.00
2018-10-07T06:25:06.207Z,97653.00
2018-10-07T06:29:08.532Z,97650.00
2018-10-07T06:33:10.887Z,97662.00
2018-10-07T06:37:13.299Z,97675.00
2018-10-07T06:41:15.622Z,97670.00
2018-10-07T06:45:18.144Z,97682.00
2018-10-07T06:49:20.735Z,97688.00
2018-10-07T06:53:23.007Z,97690.00
2018-10-07T06:57:25.511Z,97694.00
2018-10-07T07:01:27.821Z,97701.00
2018-10-07T07:05:30.227Z,97703.00
2018-10-07T07:09:32.531Z,97702.00
2018-10-07T07:13:34.891Z,97712.00
2018-10-07T07:17:37.304Z,97721.00
2018-10-07T07:21:39.620Z,97720.00
2018-10-07T07:25:41.921Z,97726.00
2018-10-07T07:29:44.291Z,97729.00
2018-10-07T07:33:46.731Z,97723.00
2018-10-07T07:37:49.094Z,97734.00
2018-10-07T07:41:51.445Z,97740.00
2018-10-07T07:45:53.810Z,97748.00
2018-10-07T07:49:56.164Z,97750.00
2018-10-07T07:53:58.441Z,97766.00
2018-10-07T07:58:00.785Z,97783.00
2018-10-07T08:02:03.170Z,97787.00
2018-10-07T08:06:09.191Z,97796.00
2018-10-07T08:10:11.535Z,97810.00
2018-10-07T08:14:13.833Z,97801.00
2018-10-07T08:18:16.224Z,97810.00
2018-10-07T08:22:18.527Z,97812.00
2018-10-07T08:26:20.896Z,97807.00
2018-10-07T08:30:23.206Z,97814.00
2018-10-07T08:34:25.554Z,97814.00
2018-10-07T08:38:27.971Z,97824.00
2018-10-07T08:42:30.309Z,97828.00
2018-10-07T08:46:32.664Z,97814.00
2018-10-07T08:50:34.950Z,97834.00
2018-10-07T08:54:37.295Z,97850.00
2018-10-07T08:58:39.594Z,97842.00
2018-10-07T09:02:42.005Z,97868.00
2018-10-07T09:06:44.324Z,97863.00
2018-10-07T09:10:46.705Z,97874.00
2018-10-07T09:14:49.055Z,97876.00
2018-10-07T09:18:51.396Z,97883.00
2018-10-07T09:22:56.085Z,97887.00
2018-10-07T09:26:58.508Z,97890.00
2018-10-07T09:31:00.774Z,97898.00
2018-10-07T09:35:03.189Z,97896.00
2018-10-07T09:39:07.800Z,97921.00
2018-10-07T09:43:11.069Z,97921.00
2018-10-07T09:47:13.682Z,97928.00
2018-10-07T09:51:16.478Z,97934.00
2018-10-07T09:56:48.404Z,97933.00
2018-10-07T10:00:50.749Z,97945.00
2018-10-07T10:04:53.712Z,97950.00
2018-10-07T10:08:57.215Z,97954.00
2018-10-07T10:13:00.148Z,97953.00
2018-10-07T10:17:07.508Z,97952.00
2018-10-07T10:21:34.579Z,97965.00
2018-10-07T10:27:55.910Z,97965.00
2018-10-07T10:32:27.361Z,97968.00
2018-10-07T10:36:39.035Z,97964.00
2018-10-07T10:40:48.729Z,97964.00
2018-10-07T10:44:53.719Z,97967.00
2018-10-07T10:51:10.494Z,97968.00
2018-10-07T10:55:25.055Z,97965.00
2018-10-07T10:59:34.523Z,97957.00
2018-10-07T11:04:03.319Z,97937.00
2018-10-07T11:08:16.643Z,97950.00
2018-10-07T11:12:40.325Z,97961.00
2018-10-07T11:18:54.278Z,97956.00
2018-10-07T11:24:09.709Z,97957.00
2018-10-07T11:28:22.874Z,97954.00
2018-10-07T11:34:03.074Z,97962.00
2018-10-07T11:38:12.145Z,97974.00
2018-10-07T11:42:22.954Z,97959.00
2018-10-07T11:47:02.880Z,97951.00
2018-10-07T11:52:18.097Z,97965.00
2018-10-07T11:56:20.422Z,97967.00
2018-10-07T12:00:22.813Z,97974.00
2018-10-07T12:04:25.322Z,97983.00
2018-10-07T12:08:27.847Z,97986.00
2018-10-07T12:12:30.297Z,97994.00
2018-10-07T12:16:32.702Z,97988.00
2018-10-07T12:20:35.054Z,97999.00
2018-10-07T12:24:38.075Z,97988.00
2018-10-07T12:28:40.689Z,97986.00
2018-10-07T12:32:43.218Z,97993.00
2018-10-07T12:36:46.363Z,98002.00
2018-10-07T12:40:48.804Z,98010.00
2018-10-07T12:44:51.613Z,98014.00
2018-10-07T12:48:54.475Z,98017.00
2018-10-07T12:52:58.471Z,98014.00
2018-10-07T12:57:01.072Z,98016.00
2018-10-07T13:01:03.400Z,98029.00
2018-10-07T13:05:05.912Z,98038.00
2018-10-07T13:09:09.754Z,98038.00
2018-10-07T13:13:12.123Z,98043.00
2018-10-07T13:17:15.962Z,98045.00
2018-10-07T13:21:18.301Z,98061.00
2018-10-07T13:25:20.589Z,98057.00
2018-10-07T13:29:22.951Z,98069.00
2018-10-07T13:33:27.916Z,98073.00
2018-10-07T13:37:30.241Z,98065.00
2018-10-07T13:41:32.561Z,98079.00
2018-10-07T13:45:35.043Z,98080.00
2018-10-07T13:49:37.491Z,98092.00
2018-10-07T13:53:40.074Z,98084.00
2018-10-07T13:57:42.415Z,98090.00
2018-10-07T14:01:44.841Z,98093.00
2018-10-07T14:05:47.211Z,98095.00
2018-10-07T14:09:49.548Z,98108.00
2018-10-07T14:13:51.887Z,98106.00
2018-10-07T14:17:54.476Z,98101.00
2018-10-07T14:21:57.032Z,98099.00
2018-10-07T14:25:59.662Z,98110.00
2018-10-07T14:30:02.981Z,98109.00
2018-10-07T14:34:05.327Z,98099.00
2018-10-07T14:38:07.662Z,98089.00
2018-10-07T14:42:10.307Z,98109.00
2018-10-07T14:46:12.653Z,98093.00
2018-10-07T14:50:15.068Z,98097.00
2018-10-07T14:54:17.433Z,98107.00
2018-10-07T14:58:19.763Z,98105.00
2018-10-07T15:02:22.120Z,98107.00
2018-10-07T15:06:24.354Z,98101.00
2018-10-07T15:10:26.715Z,98098.00
2018-10-07T15:14:29.050Z,98090.00
2018-10-07T15:18:31.388Z,98089.00
2018-10-07T15:22:33.748Z,98087.00
2018-10-07T15:26:36.187Z,98088.00
2018-10-07T15:30:38.521Z,98091.00
2018-10-07T15:34:40.802Z,98090.00
2018-10-07T15:38:43.151Z,98090.00
2018-10-07T15:42:45.472Z,98101.00
2018-10-07T15:46:47.849Z,98096.00
2018-10-07T15:50:50.112Z,98113.00
2018-10-07T15:54:52.474Z,98108.00
2018-10-07T15:58:54.926Z,98110.00
2018-10-07T16:02:57.262Z,98120.00
2018-10-07T16:06:59.605Z,98125.00
2018-10-07T16:11:01.974Z,98134.00
2018-10-07T16:15:04.321Z,98130.00
2018-10-07T16:19:06.896Z,98127.00
2018-10-07T16:23:09.275Z,98138.00
2018-10-07T16:27:12.607Z,98156.00
2018-10-07T16:31:14.944Z,98144.00
2018-10-07T16:35:17.315Z,98155.00
2018-10-07T16:39:19.691Z,98161.00
2018-10-07T16:43:21.956Z,98162.00
2018-10-07T16:47:24.377Z,98168.00
2018-10-07T16:51:26.764Z,98174.00
2018-10-07T16:55:29.096Z,98176.00
2018-10-07T16:59:31.517Z,98181.00
2018-10-07T17:03:34.125Z,98184.00
2018-10-07T17:07:36.543Z,98193.00
2018-10-07T17:11:38.914Z,98198.00
2018-10-07T17:15:41.963Z,98206.00
2018-10-07T17:19:44.311Z,98209.00
2018-10-07T17:23:46.676Z,98219.00
2018-10-07T17:27:49.064Z,98226.00
2018-10-07T17:31:51.424Z,98236.00
2018-10-07T17:35:53.781Z,98240.00
2018-10-07T17:39:56.200Z,98240.00
2018-10-07T17:43:58.550Z,98246.00
2018-10-07T17:48:00.965Z,98249.00
2018-10-07T17:52:03.340Z,98265.00
2018-10-07T17:56:06.065Z,98255.00
2018-10-07T18:00:08.990Z,98254.00
2018-10-07T18:04:11.361Z,98274.00
2018-10-07T18:08:13.705Z,98269.00
2018-10-07T18:12:16.065Z,98268.00
2018-10-07T18:16:18.480Z,98274.00
2018-10-07T18:20:20.871Z,98283.00
2018-10-07T18:24:23.249Z,98275.00
2018-10-07T18:28:28.265Z,98279.00
2018-10-07T18:32:30.752Z,98273.00
2018-10-07T18:36:33.153Z,98269.00
2018-10-07T18:40:35.696Z,98271.00
2018-10-07T18:44:38.228Z,98267.00
2018-10-07T18:48:40.749Z,98269.00
2018-10-07T18:52:43.156Z,98278.00
2018-10-07T18:56:45.549Z,98280.00
2018-10-07T19:00:47.924Z,98284.00
2018-10-07T19:04:50.276Z,98278.00
2018-10-07T19:08:52.601Z,98284.00
2018-10-07T19:12:54.996Z,98289.00
2018-10-07T19:16:57.439Z,98289.00
2018-10-07T19:20:59.928Z,98288.00
2018-10-07T19:25:02.156Z,98299.00
2018-10-07T19:29:04.536Z,98313.00
2018-10-07T19:33:07.018Z,98316.00
2018-10-07T19:37:09.525Z,98313.00
2018-10-07T19:41:11.750Z,98308.00
2018-10-07T19:45:14.037Z,98309.00
2018-10-07T19:49:16.335Z,98302.00
2018-10-07T19:53:18.866Z,98321.00
2018-10-07T19:57:21.279Z,98316.00
2018-10-07T20:01:23.673Z,98323.00
2018-10-07T20:05:26.047Z,98335.00
2018-10-07T20:09:28.728Z,98340.00
2018-10-07T20:13:31.494Z,98348.00
2018-10-07T20:17:34.115Z,98346.00
2018-10-07T20:21:36.779Z,98344.00
2018-10-07T20:25:39.445Z,98349.00
2018-10-07T20:29:42.103Z,98356.00
2018-10-07T20:33:44.764Z,98365.00
2018-10-07T20:37:48.428Z,98354.00
2018-10-07T20:41:51.070Z,98370.00
2018-10-07T20:45:53.447Z,98373.00
2018-10-07T20:49:55.850Z,98367.00
2018-10-07T20:53:58.149Z,98364.00
2018-10-07T20:58:00.627Z,98357.00
2018-10-07T21:02:02.982Z,98357.00
2018-10-07T21:06:05.387Z,98359.00
2018-10-07T21:10:07.805Z,98357.00
2018-10-07T21:14:10.155Z,98364.00
2018-10-07T21:18:12.492Z,98361.00
2018-10-07T21:22:14.905Z,98360.00
2018-10-07T21:26:17.323Z,98357.00
2018-10-07T21:30:19.704Z,98364.00
2018-10-07T21:34:22.108Z,98373.00
2018-10-07T21:38:24.394Z,98374.00
2018-10-07T21:42:26.704Z,98374.00
2018-10-07T21:46:29.003Z,98377.00
2018-10-07T21:50:31.324Z,98381.00
2018-10-07T21:54:33.654Z,98373.00
2018-10-07T21:58:35.937Z,98356.00
2018-10-07T22:02:38.259Z,98354.00
2018-10-07T22:06:40.647Z,98354.00
2018-10-07T22:10:42.983Z,98355.00
2018-10-07T22:14:45.341Z,98346.00
2018-10-07T22:18:47.721Z,98348.00
2018-10-07T22:22:50.096Z,98348.00
2018-10-07T22:26:52.447Z,98347.00
2018-10-07T22:30:54.776Z,98343.00
2018-10-07T22:34:57.121Z,98338.00
2018-10-07T22:38:59.708Z,98332.00
2018-10-07T22:43:02.106Z,98333.00
2018-10-07T22:47:04.631Z,98330.00
2018-10-07T22:51:07.052Z,98324.00
2018-10-07T22:55:09.363Z,98328.00
2018-10-07T22:59:11.717Z,98332.00
2018-10-07T23:03:14.092Z,98330.00
2018-10-07T23:07:16.416Z,98337.00
2018-10-07T23:11:18.697Z,98331.00
2018-10-07T23:15:21.033Z,98342.00
2018-10-07T23:19:23.367Z,98341.00
2018-10-07T23:23:25.662Z,98337.00
2018-10-07T23:27:27.991Z,98342.00
2018-10-07T23:31:30.326Z,98342.00
2018-10-07T23:35:32.641Z,98333.00
2018-10-07T23:39:34.912Z,98328.00
2018-10-07T23:43:37.322Z,98332.00
2018-10-07T23:47:39.645Z,98340.00
2018-10-07T23:51:42.058Z,98342.00
2018-10-07T23:55:44.302Z,98335.00
2018-10-07T23:59:46.599Z,98334.00
